Penmaenmawr, United Kingdom
Current Conditions -  °F | °C
As of 8:50 PM on Monday 22 Dec 2014 (Local Time) from EGOV Reporting Station
Haze Haze  
Wind Chill: 54°   Ceiling: 3000
Heat Index: 54°   Visibility: 3mi
Dew Point: 50°   Wind: 29mph
Humidity: 88%   Direction: 210°SSW
Pressure: 29.88"   Gusts: NA
Location:  53.27°N, 3.92°W
Report Text: EGOV 222050Z AUTO 21025KT 5000 HZ OVC030/// 12/10 Q1012
Loading
Personal Weather Stations






























Interactive Weather Map New forecast layout! Learn more

10-Day Weather Forecast

Advertisements
Track Severe Weather on mobile